Portada
METAR-TAF:

METAR-TAF

Aeroports :

Paris, Tennessee, Estats Units d'Amèrica

latitud: 36-20-18N, longitud: 088-22-58W, altitud: 177 m

Observació

L'informe es va fer fa 15 minuts, a les 11:55 UTC
Vent 5 kt amb direcció variable amb ràfegues de 12 kt
Temperatura 11°C
Humitat 76%
Pressió 1014 hPa
Visibilitat: 16.1 km
Cel clar

METAR: KPHT 091155Z AUTO VRB05G12KT 10SM CLR 11/07 A2995 RMK A01

Hora: 07:10 (12:10 UTC)


TAF: manca

Observacions i pronòstics meteorològics de més de 4000 aeroports (METAR i TAF).

Les estacions disponibles són els punts grocs i vermells al mapa.

Posi el ratolí al punt desitjat per veure el nom de l'estació.

Feu clic per veure les observacions i els pronòstics meteorològics.

Per canviar el mapa: feu clic els botons verds amb una creu de color negre per apropar; al botó verd amb un guió per allunyar la imatge; o en les fletxes verdes per a mapes adjacents.


METAR-TAF: